Time;durP1;ratioP1;P1;durP2;ratioP2;P2;SDS_P1;SDS_P2;PMS_P1;PMS_P2;Temp;Humidity;BMP_temperature;BMP_pressure;BME280_temperature;BME280_humidity;BME280_pressure;Samples;Min_cycle;Max_cycle;Signal;HPM_P1;HPM_P2
2023/06/09 00:02:18;;;;;;;7.90;4.50;;;;;;;20.40;54.74;100675.23;105169;1262;60414;-55
2023/06/09 00:04:46;;;;;;;8.20;4.90;;;;;;;20.37;54.73;100676.52;105396;1260;64205;-54
2023/06/09 00:07:16;;;;;;;7.30;5.00;;;;;;;20.32;55.07;100677.27;105282;1260;60557;-55
2023/06/09 00:09:44;;;;;;;8.00;5.00;;;;;;;20.27;55.49;100680.42;105336;1254;60550;-55
2023/06/09 00:12:12;;;;;;;7.30;4.90;;;;;;;20.21;55.60;100681.52;105962;1262;64900;-55
2023/06/09 00:14:40;;;;;;;7.00;5.10;;;;;;;20.19;55.58;100682.71;105413;1261;61370;-55
2023/06/09 00:17:08;;;;;;;6.60;5.10;;;;;;;20.16;55.59;100682.63;105037;1254;63729;-56
2023/06/09 00:19:36;;;;;;;8.80;5.20;;;;;;;20.14;55.67;100678.81;105379;1260;60610;-56
2023/06/09 00:22:05;;;;;;;7.60;5.80;;;;;;;20.13;55.80;100674.15;105218;1257;60565;-56
2023/06/09 00:24:32;;;;;;;7.90;5.10;;;;;;;20.11;55.90;100673.98;105538;1260;63649;-57
2023/06/09 00:27:00;;;;;;;7.10;5.30;;;;;;;20.09;55.94;100671.73;105235;1260;61751;-57
2023/06/09 00:29:27;;;;;;;6.70;4.50;;;;;;;20.08;55.90;100670.44;105355;1260;63766;-58
2023/06/09 00:31:55;;;;;;;10.10;5.60;;;;;;;20.10;55.88;100666.70;105491;1258;60653;-55
2023/06/09 00:34:24;;;;;;;6.80;5.00;;;;;;;20.14;55.93;100666.96;105571;1260;60597;-56
2023/06/09 00:36:51;;;;;;;6.60;5.10;;;;;;;20.15;56.06;100665.72;105450;1260;66834;-55
2023/06/09 00:39:19;;;;;;;6.60;5.40;;;;;;;20.14;56.27;100662.81;105407;1254;63271;-55
2023/06/09 00:41:46;;;;;;;7.60;5.40;;;;;;;20.14;56.17;100660.32;105170;1258;63695;-56
2023/06/09 00:44:14;;;;;;;12.00;5.60;;;;;;;20.14;56.42;100658.55;105016;1259;60562;-56
2023/06/09 00:46:42;;;;;;;8.30;5.80;;;;;;;20.13;56.37;100658.48;105432;1263;60852;-56
2023/06/09 00:49:09;;;;;;;9.90;5.50;;;;;;;20.12;56.28;100653.55;105106;1255;64990;-56
2023/06/09 00:51:37;;;;;;;9.60;5.90;;;;;;;20.11;56.31;100651.76;104943;1262;61413;-56
2023/06/09 00:54:05;;;;;;;8.90;5.70;;;;;;;20.09;56.34;100654.38;105063;1258;63720;-56
2023/06/09 00:56:33;;;;;;;7.60;5.40;;;;;;;20.06;56.26;100652.89;105137;1257;60435;-55
2023/06/09 00:59:01;;;;;;;10.10;5.40;;;;;;;20.06;56.14;100647.39;105116;1254;60448;-57
2023/06/09 01:01:28;;;;;;;8.20;5.10;;;;;;;20.07;56.40;100647.65;105447;1260;65469;-54
2023/06/09 01:03:58;;;;;;;5.90;4.60;;;;;;;20.06;56.43;100643.48;105313;1263;60418;-55
2023/06/09 01:06:45;;;;;;;10.70;6.40;;;;;;;20.04;56.50;100642.46;105848;1260;62462;-55
2023/06/09 01:09:25;;;;;;;6.60;5.30;;;;;;;20.02;56.51;100644.08;105319;1259;61228;-56
2023/06/09 01:12:41;;;;;;;8.50;5.60;;;;;;;19.99;56.62;100646.23;105389;1260;60883;-57
2023/06/09 01:15:18;;;;;;;8.60;5.50;;;;;;;19.93;56.85;100646.86;105235;1263;65022;-55
2023/06/09 01:17:48;;;;;;;7.80;5.30;;;;;;;19.88;57.02;100645.38;105425;1261;61322;-55
2023/06/09 01:20:38;;;;;;;7.40;5.30;;;;;;;19.82;57.33;100645.48;105553;1262;63860;-55
2023/06/09 01:23:08;;;;;;;8.80;5.30;;;;;;;19.82;57.42;100648.19;107586;1257;60502;-56
2023/06/09 01:25:41;;;;;;;8.70;5.80;;;;;;;19.83;57.46;100649.98;105907;1260;61183;-56
2023/06/09 01:28:11;;;;;;;7.90;4.80;;;;;;;19.83;57.63;100645.21;105491;1262;65074;-57
2023/06/09 01:30:40;;;;;;;7.50;5.40;;;;;;;19.80;57.88;100645.40;105320;1262;61337;-57
2023/06/09 01:33:21;;;;;;;8.50;5.30;;;;;;;19.78;57.95;100643.88;105454;1260;63664;-58
2023/06/09 01:35:50;;;;;;;6.70;5.70;;;;;;;19.74;57.91;100641.37;105369;1256;60502;-57
2023/06/09 01:38:19;;;;;;;7.60;5.60;;;;;;;19.71;58.06;100637.60;105550;1258;60438;-56
2023/06/09 01:40:47;;;;;;;7.90;5.50;;;;;;;19.69;58.37;100635.02;105858;1258;63645;-54
2023/06/09 01:43:15;;;;;;;8.40;6.30;;;;;;;19.69;58.53;100639.80;105364;1258;61377;-55
2023/06/09 01:45:42;;;;;;;6.50;4.90;;;;;;;19.68;58.69;100638.70;105316;1261;63791;-55
2023/06/09 01:48:17;;;;;;;13.70;5.60;;;;;;;19.67;58.88;100638.23;106545;1258;60454;-55
2023/06/09 01:51:08;;;;;;;8.30;5.90;;;;;;;19.67;58.96;100636.48;105394;1258;60464;-57
2023/06/09 01:53:37;;;;;;;8.70;6.20;;;;;;;19.64;58.69;100632.42;105602;1260;65031;-56
2023/06/09 01:56:14;;;;;;;10.20;6.10;;;;;;;19.60;58.62;100638.59;105726;1257;61577;-56
2023/06/09 01:58:43;;;;;;;10.60;6.30;;;;;;;19.54;58.72;100639.38;105167;1263;62498;-56
2023/06/09 02:01:12;;;;;;;9.50;5.60;;;;;;;19.49;59.02;100641.05;105387;1254;60381;-54
2023/06/09 02:03:40;;;;;;;7.40;5.60;;;;;;;19.45;59.17;100642.05;105241;1261;60354;-55
2023/06/09 02:06:08;;;;;;;7.70;6.00;;;;;;;19.41;59.21;100638.92;105026;1254;63792;-55
2023/06/09 02:08:37;;;;;;;6.90;5.00;;;;;;;19.40;59.24;100641.00;105347;1260;61582;-55
2023/06/09 02:11:04;;;;;;;8.20;5.70;;;;;;;19.40;59.30;100641.92;105836;1260;62444;-55
2023/06/09 02:13:32;;;;;;;7.00;5.20;;;;;;;19.40;59.31;100640.79;105496;1260;62724;-56
2023/06/09 02:16:00;;;;;;;9.80;6.00;;;;;;;19.40;59.44;100639.69;105446;1260;60373;-56
2023/06/09 02:18:27;;;;;;;7.90;5.70;;;;;;;19.39;59.61;100637.35;105323;1263;63672;-55
2023/06/09 02:20:55;;;;;;;9.50;6.30;;;;;;;19.38;59.70;100637.36;105387;1260;61307;-55
2023/06/09 02:23:22;;;;;;;7.60;5.20;;;;;;;19.36;59.74;100636.63;105204;1258;62517;-55
2023/06/09 02:25:50;;;;;;;7.70;5.90;;;;;;;19.34;59.89;100634.41;105265;1263;60536;-57
2023/06/09 02:28:18;;;;;;;8.20;5.80;;;;;;;19.34;59.89;100632.64;105328;1256;60479;-57
2023/06/09 02:30:46;;;;;;;7.30;5.00;;;;;;;19.35;59.82;100634.57;105638;1260;64872;-54
2023/06/09 02:33:18;;;;;;;10.60;6.30;;;;;;;19.37;59.98;100637.36;105403;1257;60515;-54
2023/06/09 02:35:46;;;;;;;7.80;5.80;;;;;;;19.38;60.01;100636.42;105383;1257;63700;-55
2023/06/09 02:38:13;;;;;;;7.00;5.40;;;;;;;19.37;60.08;100637.57;105293;1260;60557;-56
2023/06/09 02:40:47;;;;;;;7.80;5.80;;;;;;;19.36;60.12;100639.97;105300;1258;60551;-56
2023/06/09 02:43:16;;;;;;;9.10;5.80;;;;;;;19.33;60.22;100646.75;105264;1262;64834;-56
2023/06/09 02:45:44;;;;;;;7.90;5.60;;;;;;;19.33;60.26;100647.98;105332;1258;62052;-56
2023/06/09 02:48:13;;;;;;;10.90;6.10;;;;;;;19.29;60.29;100648.96;105326;1261;63860;-56
2023/06/09 02:50:41;;;;;;;6.90;5.30;;;;;;;19.29;60.26;100650.45;105398;1258;60530;-55
2023/06/09 02:53:09;;;;;;;8.40;5.80;;;;;;;19.34;60.13;100654.70;105785;1260;60533;-54
2023/06/09 02:55:38;;;;;;;8.60;6.30;;;;;;;19.39;60.22;100657.98;105720;1254;65002;-54
2023/06/09 02:58:06;;;;;;;8.50;6.00;;;;;;;19.44;60.29;100657.58;105491;1255;61802;-55
2023/06/09 03:00:34;;;;;;;7.30;5.30;;;;;;;19.47;60.20;100659.73;106283;1257;395610;-56
2023/06/09 03:05:58;;;;;;;8.80;6.10;;;;;;;19.34;60.26;100662.29;102605;1295;600643;-56
2023/06/09 03:08:26;;;;;;;9.80;6.20;;;;;;;19.52;59.48;100663.84;104719;1266;59373;-57
2023/06/09 03:10:54;;;;;;;9.00;6.00;;;;;;;19.55;59.40;100666.33;104552;1270;59416;-54
2023/06/09 03:13:21;;;;;;;10.00;5.90;;;;;;;19.59;59.23;100667.68;104830;1266;65280;-54
2023/06/09 03:15:51;;;;;;;12.00;6.10;;;;;;;19.63;59.06;100666.48;104963;1264;61368;-54
2023/06/09 03:18:19;;;;;;;9.90;5.80;;;;;;;19.65;58.83;100666.74;104744;1260;213158;-54
2023/06/09 03:20:48;;;;;;;9.30;6.40;;;;;;;19.68;58.91;100669.48;105307;1256;59365;-54
2023/06/09 03:23:18;;;;;;;10.20;7.30;;;;;;;19.68;58.95;100672.20;105318;1256;59302;-55
2023/06/09 03:25:46;;;;;;;9.80;6.60;;;;;;;19.68;58.79;100673.05;105306;1263;63517;-54
2023/06/09 03:28:14;;;;;;;9.70;6.50;;;;;;;19.70;58.81;100675.16;105265;1257;61312;-54
2023/06/09 03:30:42;;;;;;;9.70;6.60;;;;;;;19.71;58.48;100677.19;105275;1261;62459;-55
2023/06/09 03:33:11;;;;;;;8.80;6.10;;;;;;;19.74;58.19;100680.02;105277;1260;59765;-55
2023/06/09 03:35:39;;;;;;;9.80;6.20;;;;;;;19.78;58.06;100674.61;105389;1262;59692;-55
2023/06/09 03:38:06;;;;;;;9.30;5.90;;;;;;;19.81;58.14;100676.55;105217;1255;62812;-54
2023/06/09 03:40:36;;;;;;;10.40;6.40;;;;;;;19.83;58.35;100673.85;105672;1258;62037;-55
2023/06/09 03:43:04;;;;;;;9.80;7.00;;;;;;;19.85;58.42;100676.15;105447;1257;63760;-56
2023/06/09 03:45:32;;;;;;;8.20;6.60;;;;;;;19.86;58.19;100677.37;105381;1261;59672;-56
2023/06/09 03:47:59;;;;;;;9.70;7.00;;;;;;;19.87;58.20;100678.60;105303;1255;60530;-56
2023/06/09 03:50:28;;;;;;;8.50;6.90;;;;;;;19.87;58.31;100677.66;105324;1258;64131;-54
2023/06/09 03:52:55;;;;;;;9.80;7.20;;;;;;;19.90;58.23;100679.27;105812;1257;61350;-54
2023/06/09 03:55:24;;;;;;;9.50;6.80;;;;;;;19.95;57.99;100676.41;105228;1257;63744;-55
2023/06/09 03:57:54;;;;;;;10.00;6.90;;;;;;;19.98;57.94;100675.92;105192;1263;59685;-55
2023/06/09 04:00:22;;;;;;;10.20;6.90;;;;;;;19.98;57.91;100676.89;105349;1258;59567;-55
2023/06/09 04:02:53;;;;;;;9.20;6.80;;;;;;;20.01;57.87;100681.08;105196;1262;64081;-55
2023/06/09 04:05:21;;;;;;;9.10;6.90;;;;;;;20.04;57.93;100683.39;105385;1258;63782;-55
2023/06/09 04:07:52;;;;;;;9.70;7.00;;;;;;;20.04;58.01;100684.56;105274;1260;63772;-55
2023/06/09 04:10:19;;;;;;;8.60;7.00;;;;;;;20.03;58.03;100683.23;105482;1257;60141;-55
2023/06/09 04:12:48;;;;;;;7.60;6.20;;;;;;;20.06;58.21;100685.41;105382;1261;59560;-54
2023/06/09 04:15:17;;;;;;;12.20;6.90;;;;;;;20.11;58.22;100689.48;105349;1258;64155;-55
2023/06/09 04:18:09;;;;;;;9.00;7.30;;;;;;;20.14;58.42;100688.07;105308;1257;61609;-56
2023/06/09 04:20:38;;;;;;;11.20;6.50;;;;;;;20.23;58.46;100686.73;105113;1263;62470;-53
2023/06/09 04:23:08;;;;;;;9.00;6.80;;;;;;;20.27;58.30;100685.52;105227;1258;59755;-54
2023/06/09 04:25:41;;;;;;;10.40;7.10;;;;;;;20.24;58.34;100686.98;105148;1263;59616;-55
2023/06/09 04:28:12;;;;;;;10.60;7.40;;;;;;;20.24;58.34;100685.86;105310;1257;64175;-55
2023/06/09 04:30:40;;;;;;;9.50;6.90;;;;;;;20.24;58.44;100685.33;105258;1258;61413;-52
2023/06/09 04:33:12;;;;;;;8.20;6.50;;;;;;;20.29;58.32;100689.45;105062;1256;63852;-54
2023/06/09 04:35:41;;;;;;;8.70;7.10;;;;;;;20.36;58.58;100685.56;105217;1256;59762;-56
2023/06/09 04:38:09;;;;;;;7.50;6.40;;;;;;;20.43;58.70;100684.40;105258;1261;59775;-54
2023/06/09 04:40:39;;;;;;;10.10;8.00;;;;;;;20.46;58.69;100682.59;105222;1257;66457;-55
2023/06/09 04:43:08;;;;;;;9.40;6.90;;;;;;;20.49;58.62;100682.77;105299;1258;61972;-55
2023/06/09 04:45:36;;;;;;;8.60;7.20;;;;;;;20.50;58.33;100686.38;105617;1258;63757;-55
2023/06/09 04:48:12;;;;;;;11.70;7.80;;;;;;;20.50;58.36;100683.86;105294;1257;59691;-57
2023/06/09 04:50:44;;;;;;;10.50;7.00;;;;;;;20.51;58.18;100682.05;105566;1259;59618;-56
2023/06/09 04:53:15;;;;;;;9.50;7.20;;;;;;;20.54;57.91;100681.13;105221;1257;64107;-55
2023/06/09 04:55:46;;;;;;;14.90;8.00;;;;;;;20.61;57.85;100681.74;105314;1261;61802;-55
2023/06/09 04:58:25;;;;;;;9.80;7.80;;;;;;;20.66;57.49;100679.05;105236;1260;63842;-55
2023/06/09 05:00:53;;;;;;;10.90;7.50;;;;;;;20.69;57.48;100679.05;105282;1257;59718;-55
2023/06/09 05:03:23;;;;;;;9.30;7.50;;;;;;;20.69;57.31;100678.30;105213;1263;59682;-55
2023/06/09 05:05:51;;;;;;;13.10;7.80;;;;;;;20.66;57.48;100673.52;105272;1258;64159;-53
2023/06/09 05:08:20;;;;;;;9.10;7.70;;;;;;;20.64;57.56;100672.18;105097;1264;60341;-53
2023/06/09 05:10:49;;;;;;;12.40;8.50;;;;;;;20.61;57.60;100674.02;105211;1257;64250;-56
2023/06/09 05:13:17;;;;;;;10.00;7.80;;;;;;;20.62;57.83;100676.83;106256;1259;59806;-55
2023/06/09 05:15:45;;;;;;;11.50;6.80;;;;;;;20.70;57.94;100675.90;105239;1258;59637;-55
2023/06/09 05:18:17;;;;;;;9.40;7.60;;;;;;;20.82;57.61;100671.14;105276;1256;64152;-55
2023/06/09 05:20:45;;;;;;;11.70;7.90;;;;;;;20.90;57.23;100667.39;105340;1257;61428;-54
2023/06/09 05:23:13;;;;;;;13.60;8.50;;;;;;;20.97;57.47;100663.95;105099;1257;64243;-53
2023/06/09 05:25:40;;;;;;;9.70;8.10;;;;;;;21.05;57.44;100669.77;105096;1257;59734;-56
2023/06/09 05:28:08;;;;;;;10.60;8.10;;;;;;;21.11;57.32;100671.17;105198;1257;59813;-54
2023/06/09 05:30:36;;;;;;;10.20;8.30;;;;;;;21.17;57.41;100672.98;105151;1261;64195;-55
2023/06/09 05:33:03;;;;;;;10.60;8.10;;;;;;;21.22;57.08;100671.45;105308;1256;61848;-59
2023/06/09 05:35:32;;;;;;;10.30;8.10;;;;;;;21.27;56.99;100667.23;105927;1257;64246;-55
2023/06/09 05:38:00;;;;;;;9.90;8.20;;;;;;;21.34;57.13;100671.10;105199;1262;59641;-55
2023/06/09 05:40:28;;;;;;;10.40;7.40;;;;;;;21.42;56.96;100669.40;105111;1262;59559;-56
2023/06/09 05:42:56;;;;;;;13.30;8.40;;;;;;;21.49;56.95;100668.89;105324;1257;64061;-54
2023/06/09 05:45:23;;;;;;;11.10;8.60;;;;;;;21.58;56.61;100666.64;105194;1257;61338;-55
2023/06/09 05:47:51;;;;;;;13.20;8.80;;;;;;;21.66;56.46;100668.34;105162;1257;63720;-55
2023/06/09 05:50:19;;;;;;;10.30;8.50;;;;;;;21.71;56.26;100669.11;105235;1257;59602;-55
2023/06/09 05:52:47;;;;;;;11.60;8.50;;;;;;;21.77;55.73;100673.34;105186;1257;59721;-56
2023/06/09 05:55:17;;;;;;;13.00;8.50;;;;;;;21.83;55.59;100676.20;105053;1258;64107;-56
2023/06/09 05:57:45;;;;;;;12.50;8.40;;;;;;;21.88;54.99;100675.97;105620;1257;61376;-56
2023/06/09 06:00:13;;;;;;;12.20;8.30;;;;;;;21.91;54.82;100674.55;105172;1257;63728;-55
2023/06/09 06:02:42;;;;;;;10.60;8.20;;;;;;;21.95;54.97;100672.65;105316;1261;59707;-56
2023/06/09 06:05:10;;;;;;;9.40;7.20;;;;;;;22.03;55.02;100672.11;105413;1257;59663;-56
2023/06/09 06:07:38;;;;;;;11.30;7.70;;;;;;;22.12;54.78;100672.70;105109;1257;62864;-57
2023/06/09 06:10:07;;;;;;;10.70;7.60;;;;;;;22.24;54.65;100669.87;105157;1256;61408;-56
2023/06/09 06:12:35;;;;;;;9.30;7.40;;;;;;;22.30;54.29;100673.50;106164;1257;63702;-56
2023/06/09 06:15:03;;;;;;;9.40;7.60;;;;;;;22.35;53.57;100671.91;105167;1259;59742;-55
2023/06/09 06:17:31;;;;;;;10.40;7.50;;;;;;;22.38;53.09;100673.38;105215;1263;59666;-56
2023/06/09 06:19:59;;;;;;;9.60;7.30;;;;;;;22.42;53.20;100674.64;105282;1261;64138;-57
2023/06/09 06:22:26;;;;;;;10.20;7.00;;;;;;;22.48;53.51;100676.05;105428;1257;61325;-56
2023/06/09 06:24:54;;;;;;;10.60;7.30;;;;;;;22.54;53.88;100673.33;105077;1257;63755;-56
2023/06/09 06:27:22;;;;;;;11.80;8.00;;;;;;;22.57;53.85;100671.64;105337;1257;60681;-56
2023/06/09 06:29:50;;;;;;;10.30;7.60;;;;;;;22.60;53.92;100670.79;105328;1256;59597;-57
2023/06/09 06:32:17;;;;;;;9.60;6.90;;;;;;;22.65;53.79;100671.96;105208;1260;64157;-56
2023/06/09 06:34:45;;;;;;;9.40;7.30;;;;;;;22.72;53.84;100672.31;105334;1260;60337;-57
2023/06/09 06:37:13;;;;;;;10.70;7.00;;;;;;;22.82;53.70;100668.98;105292;1257;63689;-57
2023/06/09 06:39:40;;;;;;;10.10;6.90;;;;;;;22.94;53.01;100669.44;105287;1257;60728;-56
2023/06/09 06:42:08;;;;;;;7.90;6.30;;;;;;;23.03;52.76;100673.70;105135;1257;59702;-55
2023/06/09 06:44:46;;;;;;;8.60;6.30;;;;;;;23.09;51.84;100673.88;105218;1260;62834;-54
2023/06/09 06:47:14;;;;;;;8.80;6.70;;;;;;;23.12;51.19;100673.61;105194;1257;61340;-54
2023/06/09 06:49:42;;;;;;;11.20;6.10;;;;;;;23.17;51.27;100675.95;105219;1258;63822;-55
2023/06/09 06:52:09;;;;;;;9.90;6.60;;;;;;;23.25;51.29;100677.02;105251;1257;59622;-56
2023/06/09 06:54:37;;;;;;;10.20;7.20;;;;;;;23.31;50.97;100676.35;105150;1257;59666;-55
2023/06/09 06:57:05;;;;;;;10.10;6.70;;;;;;;23.39;51.22;100674.48;105104;1262;64078;-56
2023/06/09 06:59:33;;;;;;;10.50;7.00;;;;;;;23.46;51.07;100672.83;107396;1257;61558;-57
2023/06/09 07:02:00;;;;;;;9.60;7.30;;;;;;;23.51;50.72;100671.43;105260;1258;63688;-56
2023/06/09 07:04:28;;;;;;;11.60;6.40;;;;;;;23.55;50.24;100672.36;105129;1256;59660;-56
2023/06/09 07:06:56;;;;;;;9.00;5.80;;;;;;;23.59;50.06;100671.71;105224;1263;60242;-55
2023/06/09 07:09:24;;;;;;;10.00;5.90;;;;;;;23.63;49.95;100668.62;105211;1258;64111;-55
2023/06/09 07:11:52;;;;;;;8.10;6.20;;;;;;;23.69;49.69;100668.39;105248;1257;61903;-55
2023/06/09 07:14:19;;;;;;;8.50;6.00;;;;;;;23.75;49.15;100668.33;105061;1261;62503;-55
2023/06/09 07:16:47;;;;;;;10.00;5.70;;;;;;;23.82;48.84;100672.41;105200;1257;60821;-55
2023/06/09 07:19:15;;;;;;;7.90;5.80;;;;;;;23.90;48.67;100668.30;105157;1257;60424;-55
2023/06/09 07:21:42;;;;;;;8.30;5.00;;;;;;;23.98;48.28;100665.84;105359;1262;64984;-56
2023/06/09 07:24:10;;;;;;;8.10;5.10;;;;;;;24.06;47.24;100665.19;105215;1258;61466;-56
2023/06/09 07:26:38;;;;;;;6.70;5.20;;;;;;;24.12;46.51;100668.59;105146;1257;63702;-56
2023/06/09 07:29:05;;;;;;;10.50;5.60;;;;;;;24.20;46.49;100668.42;105257;1257;60521;-55
2023/06/09 07:31:33;;;;;;;6.60;4.30;;;;;;;24.28;46.32;100663.80;105263;1260;59613;-54
2023/06/09 07:34:01;;;;;;;8.30;5.30;;;;;;;24.35;45.87;100663.09;105254;1257;63711;-55
2023/06/09 07:36:29;;;;;;;7.30;5.30;;;;;;;24.42;45.75;100662.64;105377;1257;61436;-54
2023/06/09 07:38:57;;;;;;;8.00;5.10;;;;;;;24.49;45.34;100657.26;105276;1257;63824;-54
2023/06/09 07:41:28;;;;;;;12.30;5.40;;;;;;;24.57;45.02;100657.98;105187;1262;61667;-54
2023/06/09 07:43:56;;;;;;;9.70;5.40;;;;;;;24.63;45.44;100660.29;105403;1259;60434;-53
2023/06/09 07:46:24;;;;;;;8.30;4.60;;;;;;;24.70;45.18;100660.33;105154;1258;64964;-54
2023/06/09 07:48:52;;;;;;;7.50;5.00;;;;;;;24.76;44.77;100658.30;105294;1257;61550;-54
2023/06/09 07:51:19;;;;;;;8.90;5.30;;;;;;;24.82;44.38;100663.66;105317;1257;62431;-54
2023/06/09 07:53:47;;;;;;;8.20;5.10;;;;;;;24.88;44.13;100663.56;105232;1258;60606;-54
2023/06/09 07:56:14;;;;;;;13.00;5.30;;;;;;;24.92;44.17;100662.15;105087;1257;60474;-53
2023/06/09 07:58:42;;;;;;;8.70;4.10;;;;;;;24.98;43.39;100661.19;105239;1257;63762;-54
2023/06/09 08:01:09;;;;;;;6.70;4.00;;;;;;;25.04;42.39;100662.61;105134;1257;69983;-54
2023/06/09 08:03:37;;;;;;;7.10;4.40;;;;;;;25.10;42.46;100661.02;105165;1260;65982;-55
2023/06/09 08:06:07;;;;;;;6.40;3.20;;;;;;;25.17;40.79;100662.33;105194;1257;60527;-55
2023/06/09 08:08:37;;;;;;;7.30;3.60;;;;;;;25.26;39.61;100662.14;105213;1262;60356;-52
2023/06/09 08:11:04;;;;;;;8.50;3.60;;;;;;;25.36;39.70;100662.89;105301;1257;63704;-54
2023/06/09 08:13:32;;;;;;;7.20;3.20;;;;;;;25.48;39.34;100657.48;105122;1257;61322;-52
2023/06/09 08:15:59;;;;;;;7.50;3.50;;;;;;;25.61;39.06;100655.62;105038;1260;63761;-53
2023/06/09 08:18:27;;;;;;;6.70;3.30;;;;;;;25.72;38.69;100653.42;105153;1257;60585;-52
2023/06/09 08:20:54;;;;;;;6.00;3.50;;;;;;;25.82;38.48;100654.36;105096;1257;60462;-50
2023/06/09 08:23:22;;;;;;;5.40;3.00;;;;;;;25.90;38.34;100653.83;105211;1257;63796;-52
2023/06/09 08:25:50;;;;;;;6.30;3.30;;;;;;;26.00;38.84;100651.29;105165;1261;60432;-51
2023/06/09 08:28:17;;;;;;;6.70;3.90;;;;;;;26.11;38.33;100648.27;105208;1257;64130;-50
2023/06/09 08:30:45;;;;;;;5.90;3.80;;;;;;;26.19;38.46;100644.64;105099;1261;61713;-51
2023/06/09 08:33:12;;;;;;;6.80;3.60;;;;;;;26.27;38.62;100644.61;105278;1257;60495;-55
2023/06/09 08:35:40;;;;;;;5.90;3.50;;;;;;;26.34;37.94;100648.88;105139;1257;63637;-54
2023/06/09 08:38:07;;;;;;;5.50;3.10;;;;;;;26.39;37.59;100643.06;105322;1257;61366;-54
2023/06/09 08:40:35;;;;;;;6.90;3.30;;;;;;;26.43;37.40;100641.52;105195;1257;63725;-56
2023/06/09 08:43:04;;;;;;;5.80;3.50;;;;;;;26.49;37.53;100639.05;105591;1262;60562;-57
2023/06/09 08:45:33;;;;;;;6.20;3.70;;;;;;;26.56;37.42;100638.70;105298;1255;60543;-57
2023/06/09 08:48:02;;;;;;;6.60;3.70;;;;;;;26.64;37.29;100638.28;105594;1254;65830;-57
2023/06/09 08:50:30;;;;;;;8.40;3.20;;;;;;;26.72;36.97;100641.13;105285;1257;61455;-57
2023/06/09 08:52:58;;;;;;;5.60;2.60;;;;;;;26.80;36.34;100637.21;105248;1257;63692;-57
2023/06/09 08:55:26;;;;;;;6.60;3.20;;;;;;;26.88;35.20;100638.80;105304;1258;60524;-57
2023/06/09 08:57:53;;;;;;;6.90;3.70;;;;;;;26.96;34.48;100637.04;105288;1259;60623;-57
2023/06/09 09:00:21;;;;;;;6.30;2.90;;;;;;;27.00;33.87;100636.20;105245;1257;64904;-56
2023/06/09 09:02:49;;;;;;;7.80;2.80;;;;;;;27.03;33.64;100635.63;105553;1257;61730;-57
2023/06/09 09:05:17;;;;;;;5.70;2.60;;;;;;;27.07;33.95;100635.04;105303;1260;63762;-58
2023/06/09 09:07:45;;;;;;;5.60;2.50;;;;;;;27.14;34.39;100634.79;105506;1255;60528;-56
2023/06/09 09:10:12;;;;;;;5.30;2.70;;;;;;;27.24;34.52;100635.09;105407;1258;60562;-57
2023/06/09 09:12:46;;;;;;;5.90;3.00;;;;;;;27.35;34.41;100632.60;105679;1257;64924;-57
2023/06/09 09:15:14;;;;;;;8.50;2.80;;;;;;;27.45;33.56;100628.77;105294;1262;60502;-56
2023/06/09 09:17:41;;;;;;;6.90;2.80;;;;;;;27.53;32.89;100628.77;105312;1257;63818;-56
2023/06/09 09:20:10;;;;;;;5.40;2.90;;;;;;;27.62;32.84;100627.15;105249;1261;60584;-57
2023/06/09 09:22:44;;;;;;;5.90;2.70;;;;;;;27.69;33.30;100626.22;105334;1258;60371;-56
2023/06/09 09:25:28;;;;;;;6.90;2.90;;;;;;;27.78;33.11;100625.92;105408;1257;64933;-56
2023/06/09 09:27:59;;;;;;;5.60;2.40;;;;;;;27.89;33.42;100625.85;105434;1257;61373;-56
2023/06/09 09:30:54;;;;;;;5.40;2.90;;;;;;;28.00;33.04;100621.62;105260;1260;63704;-57
2023/06/09 09:33:29;;;;;;;6.60;3.00;;;;;;;28.05;32.25;100614.60;105445;1259;60537;-55
2023/06/09 09:35:57;;;;;;;6.60;3.10;;;;;;;28.05;32.36;100614.92;105242;1257;60339;-50
2023/06/09 09:38:25;;;;;;;6.00;2.80;;;;;;;28.11;31.65;100615.98;105268;1260;65335;-64
2023/06/09 09:40:54;;;;;;;5.20;2.50;;;;;;;28.24;31.31;100616.94;105138;1255;61390;-60
2023/06/09 09:43:25;;;;;;;5.20;2.60;;;;;;;28.38;30.82;100615.04;105519;1261;63737;-59
2023/06/09 09:45:53;;;;;;;6.70;3.00;;;;;;;28.49;30.85;100613.70;105411;1257;60509;-59
2023/06/09 09:48:23;;;;;;;9.80;4.00;;;;;;;28.60;30.61;100606.70;105369;1256;60535;-58
2023/06/09 09:50:52;;;;;;;7.90;4.40;;;;;;;28.85;30.68;100608.73;105229;1262;64900;-58
2023/06/09 09:53:23;;;;;;;6.20;3.00;;;;;;;28.99;30.09;100609.52;105664;1257;60473;-58
2023/06/09 09:55:53;;;;;;;5.40;2.90;;;;;;;28.97;30.39;100608.33;105086;1263;63700;-57
2023/06/09 09:58:29;;;;;;;7.40;2.80;;;;;;;28.95;30.06;100602.23;105075;1257;60933;-60
2023/06/09 10:00:58;;;;;;;5.80;2.80;;;;;;;29.09;29.32;100601.70;108957;1257;58196;-58
2023/06/09 10:03:25;;;;;;;5.60;3.10;;;;;;;29.11;29.59;100603.69;108939;1257;64978;-58
2023/06/09 10:05:55;;;;;;;5.00;2.60;;;;;;;29.18;29.53;100599.41;106983;1257;60472;-61
2023/06/09 10:08:30;;;;;;;6.50;3.40;;;;;;;29.29;29.04;100600.64;105092;1263;63676;-57
2023/06/09 10:10:59;;;;;;;6.00;3.30;;;;;;;29.39;29.59;100597.80;107354;1257;60447;-58
2023/06/09 10:13:28;;;;;;;5.80;2.80;;;;;;;29.48;29.46;100597.70;105367;1260;60468;-57
2023/06/09 10:15:56;;;;;;;5.00;3.20;;;;;;;29.55;29.58;100600.48;105216;1257;64988;-59
2023/06/09 10:18:24;;;;;;;6.10;3.30;;;;;;;29.58;28.86;100592.02;105259;1254;61341;-58
2023/06/09 10:20:52;;;;;;;8.20;3.40;;;;;;;29.56;29.06;100588.98;105235;1260;62448;-58
2023/06/09 10:23:20;;;;;;;5.30;3.10;;;;;;;29.50;29.54;100594.15;105440;1263;60581;-56
2023/06/09 10:25:49;;;;;;;6.40;2.90;;;;;;;29.49;29.48;100588.77;105269;1257;60521;-60
2023/06/09 10:28:17;;;;;;;5.40;2.90;;;;;;;29.52;29.33;100579.70;105237;1257;63895;-68
2023/06/09 10:30:45;;;;;;;5.10;2.90;;;;;;;29.58;29.53;100577.80;108917;1256;61492;-59
2023/06/09 10:33:18;;;;;;;5.90;2.80;;;;;;;29.66;29.17;100575.67;108836;1259;64201;-57
2023/06/09 10:35:47;;;;;;;6.50;3.00;;;;;;;29.84;28.90;100570.40;106325;1262;60556;-55
2023/06/09 10:38:29;;;;;;;5.20;2.80;;;;;;;30.02;28.08;100569.02;105117;1257;60452;-58
2023/06/09 10:41:00;;;;;;;5.60;2.60;;;;;;;30.13;27.59;100564.08;105060;1257;64987;-58
2023/06/09 10:43:27;;;;;;;5.20;2.90;;;;;;;30.18;27.41;100560.56;105219;1257;61392;-60
2023/06/09 10:45:56;;;;;;;7.80;3.10;;;;;;;30.21;27.91;100561.54;105265;1257;64242;-59
2023/06/09 10:48:40;;;;;;;9.80;2.50;;;;;;;30.27;27.92;100558.30;105255;1257;60581;-64
2023/06/09 10:51:40;;;;;;;5.90;2.90;;;;;;;30.33;27.04;100558.84;105342;1257;60488;-60
2023/06/09 10:54:09;;;;;;;4.80;2.60;;;;;;;30.40;27.12;100554.17;105194;1258;64894;-60
2023/06/09 10:56:46;;;;;;;5.90;2.70;;;;;;;30.36;27.77;100555.57;105229;1257;61504;-65
2023/06/09 10:59:23;;;;;;;6.10;3.00;;;;;;;30.33;27.75;100554.05;105378;1257;62453;-66
2023/06/09 11:02:03;;;;;;;5.70;2.70;;;;;;;30.38;26.48;100548.83;105337;1260;60661;-62
2023/06/09 11:04:37;;;;;;;6.90;2.60;;;;;;;30.47;26.17;100545.14;105274;1260;60456;-62
2023/06/09 11:07:26;;;;;;;5.40;2.40;;;;;;;30.45;26.54;100544.02;105196;1257;64899;-63
2023/06/09 11:09:57;;;;;;;6.60;2.80;;;;;;;30.47;25.53;100536.02;105309;1257;61817;-61
2023/06/09 11:12:24;;;;;;;5.70;2.40;;;;;;;30.49;26.16;100540.51;105135;1263;63852;-59
2023/06/09 11:14:56;;;;;;;5.30;2.70;;;;;;;30.55;26.50;100536.29;105284;1258;60443;-62
2023/06/09 11:17:34;;;;;;;7.30;2.90;;;;;;;30.61;26.86;100533.86;105257;1257;61786;-69
2023/06/09 11:22:42;;;;;;;7.00;2.70;;;;;;;30.74;26.76;100529.45;105247;1257;61381;-61
2023/06/09 11:25:19;;;;;;;7.00;2.50;;;;;;;30.76;26.11;100525.79;105141;1258;63766;-63
2023/06/09 11:28:07;;;;;;;5.30;3.00;;;;;;;30.76;26.20;100525.25;105413;1260;60514;-67
2023/06/09 11:30:55;;;;;;;5.60;2.90;;;;;;;30.81;26.43;100523.99;105087;1257;61835;-63
2023/06/09 11:33:42;;;;;;;4.40;2.60;;;;;;;30.85;25.62;100519.53;105247;1261;65012;-66